createdAt,value
2017-08-12T00:00:28.356Z,944.2
2017-08-12T00:01:36.591Z,944.2
2017-08-12T00:02:44.533Z,944.1
2017-08-12T00:03:52.740Z,944.2
2017-08-12T00:05:00.717Z,944.2
2017-08-12T00:06:08.797Z,944.2
2017-08-12T00:07:16.884Z,944.2
2017-08-12T00:08:24.974Z,944.2
2017-08-12T00:09:33.118Z,944.2
2017-08-12T00:10:41.204Z,944.2
2017-08-12T00:11:49.236Z,944.2
2017-08-12T00:12:57.345Z,944.2
2017-08-12T00:14:05.412Z,944.2
2017-08-12T00:15:13.618Z,944.2
2017-08-12T00:16:21.589Z,944.2
2017-08-12T00:17:29.676Z,944.2
2017-08-12T00:18:37.770Z,944.2
2017-08-12T00:19:45.856Z,944.2
2017-08-12T00:20:53.999Z,944.2
2017-08-12T00:22:02.029Z,944.2
2017-08-12T00:23:10.116Z,944.2
2017-08-12T00:24:18.204Z,944.2
2017-08-12T00:25:26.300Z,944.2
2017-08-12T00:26:34.503Z,944.2
2017-08-12T00:27:42.470Z,944.2
2017-08-12T00:28:50.559Z,944.2
2017-08-12T00:29:58.688Z,944.2
2017-08-12T00:31:06.734Z,944.3
2017-08-12T00:32:14.880Z,944.3
2017-08-12T00:33:22.911Z,944.3
2017-08-12T00:34:31.005Z,944.3
2017-08-12T00:35:39.088Z,944.3
2017-08-12T00:36:47.178Z,944.3
2017-08-12T00:37:55.387Z,944.4
2017-08-12T00:39:03.452Z,944.3
2017-08-12T00:40:11.441Z,944.4
2017-08-12T00:41:19.531Z,944.4
2017-08-12T00:42:27.674Z,944.4
2017-08-12T00:43:35.888Z,944.4
2017-08-12T00:44:43.794Z,944.4
2017-08-12T00:45:51.882Z,944.4
2017-08-12T00:46:59.969Z,944.4
2017-08-12T00:48:08.062Z,944.4
2017-08-12T00:49:16.359Z,944.4
2017-08-12T00:50:24.255Z,944.3
2017-08-12T00:51:32.326Z,944.3
2017-08-12T00:52:40.414Z,944.3
2017-08-12T00:53:48.499Z,944.3
2017-08-12T00:54:56.647Z,944.3
2017-08-12T00:56:04.686Z,944.4
2017-08-12T00:57:12.773Z,944.3
2017-08-12T00:58:20.987Z,944.4
2017-08-12T00:59:28.949Z,944.4
2017-08-12T01:00:37.092Z,944.3
2017-08-12T01:01:45.124Z,944.3
2017-08-12T01:02:53.242Z,944.4
2017-08-12T01:04:01.308Z,944.4
2017-08-12T01:05:09.390Z,944.4
2017-08-12T01:06:17.534Z,944.4
2017-08-12T01:07:25.721Z,944.4
2017-08-12T01:08:33.656Z,944.4
2017-08-12T01:09:41.743Z,944.4
2017-08-12T01:10:49.831Z,944.4
2017-08-12T01:11:58.040Z,944.4
2017-08-12T01:13:06.007Z,944.4
2017-08-12T01:14:14.153Z,944.4
2017-08-12T01:15:22.184Z,944.3
2017-08-12T01:16:30.273Z,944.3
2017-08-12T01:17:38.499Z,944.4
2017-08-12T01:18:46.450Z,944.4
2017-08-12T01:19:54.535Z,944.4
2017-08-12T01:21:02.625Z,944.3
2017-08-12T01:22:10.820Z,944.4
2017-08-12T01:23:18.867Z,944.4
2017-08-12T01:24:26.896Z,944.3
2017-08-12T01:25:34.985Z,944.3
2017-08-12T01:26:43.195Z,944.3
2017-08-12T01:27:51.162Z,944.4
2017-08-12T01:28:59.369Z,944.3
2017-08-12T01:30:07.457Z,944.3
2017-08-12T01:31:15.424Z,944.3
2017-08-12T01:32:23.515Z,944.3
2017-08-12T01:33:31.602Z,944.3
2017-08-12T01:34:39.746Z,944.3
2017-08-12T01:35:47.904Z,944.3
2017-08-12T01:36:55.867Z,944.3
2017-08-12T01:38:03.953Z,944.4
2017-08-12T01:39:12.041Z,944.4
2017-08-12T01:40:20.417Z,944.3
2017-08-12T01:41:28.245Z,944.4
2017-08-12T01:42:36.307Z,944.4
2017-08-12T01:43:44.397Z,944.4
2017-08-12T01:44:52.683Z,944.4
2017-08-12T01:46:00.701Z,944.4
2017-08-12T01:47:08.737Z,944.4
2017-08-12T01:48:16.747Z,944.4
2017-08-12T01:49:24.837Z,944.4
2017-08-12T01:50:32.929Z,944.4
2017-08-12T01:51:41.068Z,944.4
2017-08-12T01:52:49.099Z,944.4
2017-08-12T01:53:57.189Z,944.4
2017-08-12T01:55:05.277Z,944.4
2017-08-12T01:56:13.366Z,944.4
2017-08-12T01:57:21.507Z,944.5
2017-08-12T01:58:29.543Z,944.5
2017-08-12T01:59:37.779Z,944.5
2017-08-12T02:00:45.716Z,944.5
2017-08-12T02:01:53.928Z,944.5
2017-08-12T02:03:01.956Z,944.5
2017-08-12T02:04:09.980Z,944.6
2017-08-12T02:05:18.068Z,944.5
2017-08-12T02:06:26.157Z,944.5
2017-08-12T02:07:34.246Z,944.5
2017-08-12T02:08:42.388Z,944.5
2017-08-12T02:09:50.419Z,944.5
2017-08-12T02:10:58.509Z,944.5
2017-08-12T02:12:06.598Z,944.5
2017-08-12T02:13:14.684Z,944.5
2017-08-12T02:14:22.899Z,944.5
2017-08-12T02:15:30.884Z,944.5
2017-08-12T02:16:38.949Z,944.5
2017-08-12T02:17:47.163Z,944.5
2017-08-12T02:18:55.132Z,944.5
2017-08-12T02:20:03.266Z,944.5
2017-08-12T02:21:11.308Z,944.5
2017-08-12T02:22:19.397Z,944.4
2017-08-12T02:23:27.565Z,944.4
2017-08-12T02:24:35.585Z,944.4
2017-08-12T02:25:43.729Z,944.4
2017-08-12T02:26:51.763Z,944.4
2017-08-12T02:27:59.850Z,944.4
2017-08-12T02:29:07.939Z,944.3
2017-08-12T02:30:16.028Z,944.3
2017-08-12T02:31:24.233Z,944.3
2017-08-12T02:32:32.205Z,944.3
2017-08-12T02:33:40.352Z,944.3
2017-08-12T02:34:48.377Z,944.3
2017-08-12T02:35:56.465Z,944.3
2017-08-12T02:37:04.663Z,944.3
2017-08-12T02:38:12.639Z,944.2
2017-08-12T02:39:20.727Z,944.2
2017-08-12T02:40:28.815Z,944.2
2017-08-12T02:41:37.001Z,944.2
2017-08-12T02:42:45.113Z,944.2
2017-08-12T02:43:53.081Z,944.2
2017-08-12T02:45:01.393Z,944.2
2017-08-12T02:46:09.264Z,944.2
2017-08-12T02:47:17.509Z,944.2
2017-08-12T02:48:25.490Z,944.3
2017-08-12T02:49:33.577Z,944.3
2017-08-12T02:50:41.612Z,944.3
2017-08-12T02:51:49.856Z,944.3
2017-08-12T02:52:57.783Z,944.3
2017-08-12T02:54:05.993Z,944.2
2017-08-12T02:55:13.960Z,944.3
2017-08-12T02:56:22.234Z,944.3
2017-08-12T02:57:30.131Z,944.3
2017-08-12T02:58:38.219Z,944.3
2017-08-12T02:59:46.370Z,944.3
2017-08-12T03:00:54.398Z,944.3
2017-08-12T03:02:02.483Z,944.3
2017-08-12T03:03:10.571Z,944.3
2017-08-12T03:04:18.661Z,944.3
2017-08-12T03:05:26.935Z,944.3
2017-08-12T03:06:34.927Z,944.3
2017-08-12T03:07:42.922Z,944.3
2017-08-12T03:08:51.011Z,944.3
2017-08-12T03:09:59.098Z,944.3
2017-08-12T03:11:07.245Z,944.3
2017-08-12T03:12:15.327Z,944.3
2017-08-12T03:13:23.361Z,944.3
2017-08-12T03:14:31.460Z,944.3
2017-08-12T03:15:39.545Z,944.3
2017-08-12T03:16:47.756Z,944.3
2017-08-12T03:17:55.731Z,944.3
2017-08-12T03:19:03.810Z,944.2
2017-08-12T03:20:11.956Z,944.2
2017-08-12T03:21:20.044Z,944.2
2017-08-12T03:22:28.130Z,944.2
2017-08-12T03:23:36.163Z,944.2
2017-08-12T03:24:44.248Z,944.2
2017-08-12T03:25:52.338Z,944.3
2017-08-12T03:27:00.426Z,944.2
2017-08-12T03:28:08.577Z,944.2
2017-08-12T03:29:16.602Z,944.3
2017-08-12T03:30:24.694Z,944.2
2017-08-12T03:31:32.776Z,944.3
2017-08-12T03:32:40.863Z,944.3
2017-08-12T03:33:49.092Z,944.2
2017-08-12T03:34:57.037Z,944.2
2017-08-12T03:36:05.126Z,944.3
2017-08-12T03:37:13.270Z,944.2
2017-08-12T03:38:21.303Z,944.2
2017-08-12T03:39:29.445Z,944.2
2017-08-12T03:40:37.522Z,944.2
2017-08-12T03:41:45.562Z,944.2
2017-08-12T03:42:53.647Z,944.2
2017-08-12T03:44:01.738Z,944.2
2017-08-12T03:45:09.882Z,944.2
2017-08-12T03:46:17.915Z,944.2
2017-08-12T03:47:25.999Z,944.2
2017-08-12T03:48:34.223Z,944.2
2017-08-12T03:49:42.178Z,944.3
2017-08-12T03:50:50.385Z,944.3
2017-08-12T03:51:58.351Z,944.3
2017-08-12T03:53:06.511Z,944.2
2017-08-12T03:54:14.526Z,944.2
2017-08-12T03:55:22.614Z,944.2
2017-08-12T03:56:30.762Z,944.2
2017-08-12T03:57:38.791Z,944.2
2017-08-12T03:58:46.879Z,944.2
2017-08-12T03:59:54.965Z,944.2
2017-08-12T04:01:03.053Z,944.2
2017-08-12T04:02:11.417Z,944.2
2017-08-12T04:03:19.229Z,944.1
2017-08-12T04:04:27.314Z,944.1
2017-08-12T04:05:35.410Z,944.2
2017-08-12T04:06:43.490Z,944.2
2017-08-12T04:07:51.758Z,944.2
2017-08-12T04:08:59.793Z,944.2
2017-08-12T04:10:07.756Z,944.2
2017-08-12T04:11:15.842Z,944.2
2017-08-12T04:12:23.931Z,944.2
2017-08-12T04:13:32.072Z,944.2
2017-08-12T04:14:40.108Z,944.2
2017-08-12T04:15:48.193Z,944.2
2017-08-12T04:16:56.287Z,944.2
2017-08-12T04:18:04.744Z,944.2
2017-08-12T04:19:12.579Z,944.2
2017-08-12T04:20:20.545Z,944.2
2017-08-12T04:21:28.748Z,944.3
2017-08-12T04:22:36.720Z,944.2
2017-08-12T04:23:44.809Z,944.2
2017-08-12T04:24:52.951Z,944.2
2017-08-12T04:26:00.982Z,944.2
2017-08-12T04:27:09.071Z,944.2
2017-08-12T04:28:17.159Z,944.2
2017-08-12T04:29:25.251Z,944.3
2017-08-12T04:30:33.618Z,944.3
2017-08-12T04:31:41.424Z,944.3
2017-08-12T04:32:49.514Z,944.3
2017-08-12T04:33:57.607Z,944.3
2017-08-12T04:35:05.879Z,944.3
2017-08-12T04:36:13.828Z,944.3
2017-08-12T04:37:21.861Z,944.3
2017-08-12T04:38:29.945Z,944.3
2017-08-12T04:39:38.036Z,944.3
2017-08-12T04:40:46.369Z,944.3
2017-08-12T04:41:54.328Z,944.4
2017-08-12T04:43:02.297Z,944.4
2017-08-12T04:44:10.386Z,944.4
2017-08-12T04:45:18.637Z,944.4
2017-08-12T04:46:26.561Z,944.3
2017-08-12T04:47:34.706Z,944.3
2017-08-12T04:48:42.735Z,944.3
2017-08-12T04:49:50.823Z,944.3
2017-08-12T04:50:58.910Z,944.3
2017-08-12T04:52:06.993Z,944.3
2017-08-12T04:53:15.139Z,944.3
2017-08-12T04:54:23.171Z,944.3
2017-08-12T04:55:31.321Z,944.3
2017-08-12T04:56:39.467Z,944.3
2017-08-12T04:57:47.437Z,944.3
2017-08-12T04:58:55.593Z,944.4
2017-08-12T05:00:03.798Z,944.4
2017-08-12T05:01:11.722Z,944.4
2017-08-12T05:02:19.802Z,944.4
2017-08-12T05:03:27.888Z,944.4
2017-08-12T05:04:36.031Z,944.4
2017-08-12T05:05:44.072Z,944.4
2017-08-12T05:06:52.164Z,944.4
2017-08-12T05:08:00.245Z,944.4
2017-08-12T05:09:08.332Z,944.4
2017-08-12T05:10:16.540Z,944.4
2017-08-12T05:11:24.506Z,944.4
2017-08-12T05:12:32.649Z,944.4
2017-08-12T05:13:40.681Z,944.4
2017-08-12T05:14:48.771Z,944.4
2017-08-12T05:15:56.909Z,944.5
2017-08-12T05:17:04.944Z,944.5
2017-08-12T05:18:13.031Z,944.4
2017-08-12T05:19:21.117Z,944.4
2017-08-12T05:20:29.210Z,944.4
2017-08-12T05:21:37.419Z,944.5
2017-08-12T05:22:45.384Z,944.4
2017-08-12T05:23:53.471Z,944.5
2017-08-12T05:25:01.559Z,944.5
2017-08-12T05:26:09.647Z,944.5
2017-08-12T05:27:17.788Z,944.4
2017-08-12T05:28:25.945Z,944.4
2017-08-12T05:29:33.903Z,944.4
2017-08-12T05:30:42.000Z,944.4
2017-08-12T05:31:50.087Z,944.4
2017-08-12T05:32:58.301Z,944.5
2017-08-12T05:34:06.407Z,944.5
2017-08-12T05:35:14.349Z,944.5
2017-08-12T05:36:22.435Z,944.5
2017-08-12T05:37:30.619Z,944.5
2017-08-12T05:38:38.732Z,944.5
2017-08-12T05:39:46.698Z,944.5
2017-08-12T05:40:54.785Z,944.5
2017-08-12T05:42:02.872Z,944.5
2017-08-12T05:43:10.959Z,944.5
2017-08-12T05:44:19.102Z,944.5
2017-08-12T05:45:27.138Z,944.5
2017-08-12T05:46:35.245Z,944.5
2017-08-12T05:47:43.310Z,944.6
2017-08-12T05:48:51.400Z,944.6
2017-08-12T05:49:59.605Z,944.6
2017-08-12T05:51:07.583Z,944.6
2017-08-12T05:52:15.661Z,944.6
2017-08-12T05:53:23.747Z,944.6
2017-08-12T05:54:31.832Z,944.6
2017-08-12T05:55:40.049Z,944.7
2017-08-12T05:56:48.014Z,944.6
2017-08-12T05:57:56.099Z,944.6
2017-08-12T05:59:04.187Z,944.7
2017-08-12T06:00:12.524Z,944.7
2017-08-12T06:01:20.457Z,944.7
2017-08-12T06:02:28.468Z,944.7
2017-08-12T06:03:36.535Z,944.7
2017-08-12T06:04:44.622Z,944.7
2017-08-12T06:05:52.779Z,944.7
2017-08-12T06:07:01.843Z,944.7
2017-08-12T06:08:08.949Z,944.7
2017-08-12T06:09:16.987Z,944.7
2017-08-12T06:10:25.156Z,944.8
2017-08-12T06:11:33.190Z,944.8
2017-08-12T06:12:41.368Z,944.8
2017-08-12T06:13:49.343Z,944.8
2017-08-12T06:14:57.430Z,944.8
2017-08-12T06:16:05.577Z,944.9
2017-08-12T06:17:13.604Z,944.9
2017-08-12T06:18:21.809Z,944.9
2017-08-12T06:19:30.242Z,944.9
2017-08-12T06:20:37.862Z,944.9
2017-08-12T06:21:46.453Z,944.9
2017-08-12T06:22:54.589Z,944.9
2017-08-12T06:24:02.324Z,944.9
2017-08-12T06:25:10.976Z,944.9
2017-08-12T06:26:18.299Z,944.9
2017-08-12T06:27:26.388Z,944.9
2017-08-12T06:28:35.016Z,944.9
2017-08-12T06:29:42.686Z,945.0
2017-08-12T06:30:50.654Z,945.0
2017-08-12T06:31:58.796Z,945.0
2017-08-12T06:33:06.960Z,945.0
2017-08-12T06:34:14.916Z,945.0
2017-08-12T06:35:23.123Z,945.0
2017-08-12T06:36:31.091Z,945.0
2017-08-12T06:37:39.177Z,945.1
2017-08-12T06:38:47.929Z,945.1
2017-08-12T06:39:55.351Z,945.1
2017-08-12T06:41:03.495Z,945.1
2017-08-12T06:42:11.528Z,945.1
2017-08-12T06:43:20.195Z,945.1
2017-08-12T06:44:27.702Z,945.1
2017-08-12T06:45:35.787Z,945.1
2017-08-12T06:46:43.994Z,945.1
2017-08-12T06:47:53.669Z,945.1
2017-08-12T06:49:00.609Z,945.2
2017-08-12T06:50:08.146Z,945.2
2017-08-12T06:51:16.407Z,945.2
2017-08-12T06:52:24.367Z,945.2
2017-08-12T06:53:32.399Z,945.2
2017-08-12T06:54:40.486Z,945.2
2017-08-12T06:55:48.768Z,945.2
2017-08-12T06:56:56.657Z,945.2
2017-08-12T06:58:05.017Z,945.2
2017-08-12T06:59:12.833Z,945.3
2017-08-12T07:00:20.919Z,945.2
2017-08-12T07:01:29.008Z,945.3
2017-08-12T07:02:37.113Z,945.3
2017-08-12T07:03:45.239Z,945.3
2017-08-12T07:04:53.273Z,945.3
2017-08-12T07:06:01.356Z,945.3
2017-08-12T07:07:09.443Z,945.3
2017-08-12T07:08:17.537Z,945.4
2017-08-12T07:09:25.745Z,945.4
2017-08-12T07:10:33.713Z,945.3
2017-08-12T07:11:41.898Z,945.4
2017-08-12T07:12:49.887Z,945.3
2017-08-12T07:13:57.972Z,945.4
2017-08-12T07:15:06.459Z,945.4
2017-08-12T07:16:14.148Z,945.3
2017-08-12T07:17:22.234Z,945.4
2017-08-12T07:18:30.322Z,945.4
2017-08-12T07:19:38.541Z,945.4
2017-08-12T07:20:46.554Z,945.4
2017-08-12T07:21:54.589Z,945.4
2017-08-12T07:23:02.672Z,945.4
2017-08-12T07:24:10.758Z,945.4
2017-08-12T07:25:18.844Z,945.4
2017-08-12T07:26:26.990Z,945.4
2017-08-12T07:27:35.027Z,945.4
2017-08-12T07:28:43.103Z,945.3
2017-08-12T07:29:51.191Z,945.3
2017-08-12T07:30:59.387Z,945.3
2017-08-12T07:32:07.493Z,945.4
2017-08-12T07:33:15.455Z,945.4
2017-08-12T07:34:23.542Z,945.4
2017-08-12T07:35:31.685Z,945.4
2017-08-12T07:36:39.720Z,945.3
2017-08-12T07:37:47.923Z,945.3
2017-08-12T07:38:55.891Z,945.4
2017-08-12T07:40:03.980Z,945.4
2017-08-12T07:41:12.068Z,945.4
2017-08-12T07:42:20.156Z,945.4
2017-08-12T07:43:28.297Z,945.4
2017-08-12T07:44:36.327Z,945.4
2017-08-12T07:45:44.412Z,945.4
2017-08-12T07:46:52.501Z,945.4
2017-08-12T07:48:00.591Z,945.4
2017-08-12T07:49:09.222Z,945.4
2017-08-12T07:50:16.765Z,945.5
2017-08-12T07:51:26.952Z,945.5
2017-08-12T07:52:33.525Z,945.5
2017-08-12T07:53:41.560Z,945.5
2017-08-12T07:54:49.242Z,945.5
2017-08-12T07:55:57.200Z,945.5
2017-08-12T07:57:05.288Z,945.6
2017-08-12T07:58:13.368Z,945.6
2017-08-12T07:59:21.456Z,945.6
2017-08-12T08:00:29.664Z,945.6
2017-08-12T08:01:37.644Z,945.6
2017-08-12T08:02:46.129Z,945.6
2017-08-12T08:03:54.186Z,945.6
2017-08-12T08:05:01.891Z,945.6
2017-08-12T08:06:10.162Z,945.6
2017-08-12T08:07:18.203Z,945.6
2017-08-12T08:08:26.156Z,945.6
2017-08-12T08:09:34.307Z,945.6
2017-08-12T08:10:42.331Z,945.7
2017-08-12T08:11:50.477Z,945.7
2017-08-12T08:12:58.544Z,945.7
2017-08-12T08:14:06.612Z,945.7
2017-08-12T08:15:14.678Z,945.7
2017-08-12T08:16:22.767Z,945.7
2017-08-12T08:17:30.973Z,945.8
2017-08-12T08:18:39.004Z,945.7
2017-08-12T08:19:47.029Z,945.7
2017-08-12T08:20:55.115Z,945.7
2017-08-12T08:22:03.204Z,945.8
2017-08-12T08:23:11.350Z,945.7
2017-08-12T08:24:19.376Z,945.8
2017-08-12T08:25:27.461Z,945.8
2017-08-12T08:26:35.550Z,945.8
2017-08-12T08:27:43.753Z,945.8
2017-08-12T08:28:51.778Z,945.8
2017-08-12T08:29:59.809Z,945.8
2017-08-12T08:31:08.508Z,945.8
2017-08-12T08:32:16.529Z,945.8
2017-08-12T08:33:24.213Z,945.8
2017-08-12T08:34:32.835Z,945.8
2017-08-12T08:35:40.266Z,945.8
2017-08-12T08:36:48.983Z,945.8
2017-08-12T08:37:56.428Z,945.8
2017-08-12T08:39:04.635Z,945.8
2017-08-12T08:40:12.601Z,945.8
2017-08-12T08:41:20.887Z,945.8
2017-08-12T08:42:28.774Z,945.8
2017-08-12T08:43:37.086Z,945.8
2017-08-12T08:44:45.013Z,945.8
2017-08-12T08:45:53.046Z,945.8
2017-08-12T08:47:01.192Z,945.8
2017-08-12T08:48:09.781Z,945.8
2017-08-12T08:49:17.305Z,945.8
2017-08-12T08:50:25.516Z,945.8
2017-08-12T08:51:33.576Z,945.8
2017-08-12T08:52:41.621Z,945.7
2017-08-12T08:53:49.655Z,945.8
2017-08-12T08:54:57.793Z,945.8
2017-08-12T08:56:05.948Z,945.8
2017-08-12T08:57:13.917Z,945.8
2017-08-12T08:58:22.000Z,945.8
2017-08-12T08:59:30.089Z,945.8
2017-08-12T09:00:38.174Z,945.8
2017-08-12T09:01:46.355Z,945.8
2017-08-12T09:02:54.348Z,945.8
2017-08-12T09:04:02.435Z,945.8
2017-08-12T09:05:10.708Z,945.8
2017-08-12T09:06:18.609Z,945.8
2017-08-12T09:07:26.817Z,945.9
2017-08-12T09:08:34.786Z,945.9
2017-08-12T09:09:42.869Z,945.9
2017-08-12T09:10:51.009Z,945.8
2017-08-12T09:11:59.042Z,945.8
2017-08-12T09:13:07.254Z,945.8
2017-08-12T09:14:15.216Z,945.8
2017-08-12T09:15:23.304Z,945.9
2017-08-12T09:16:31.396Z,945.9
2017-08-12T09:17:39.485Z,945.9
2017-08-12T09:18:47.625Z,945.9
2017-08-12T09:19:55.719Z,945.9
2017-08-12T09:21:03.746Z,945.9
2017-08-12T09:22:11.834Z,945.9
2017-08-12T09:23:19.922Z,945.9
2017-08-12T09:24:28.127Z,945.9
2017-08-12T09:25:36.175Z,945.9
2017-08-12T09:26:44.238Z,945.9
2017-08-12T09:27:52.267Z,945.9
2017-08-12T09:29:00.353Z,945.9
2017-08-12T09:30:09.176Z,945.9
2017-08-12T09:31:16.531Z,945.8
2017-08-12T09:32:24.614Z,945.8
2017-08-12T09:33:32.702Z,945.8
2017-08-12T09:34:40.886Z,945.8
2017-08-12T09:35:48.934Z,945.8
2017-08-12T09:36:57.020Z,945.8
2017-08-12T09:38:05.049Z,945.8
2017-08-12T09:39:13.277Z,945.8
2017-08-12T09:40:21.227Z,945.8
2017-08-12T09:41:29.433Z,945.8
2017-08-12T09:42:37.456Z,945.8
2017-08-12T09:43:45.493Z,945.8
2017-08-12T09:44:53.583Z,945.7
2017-08-12T09:46:01.667Z,945.7
2017-08-12T09:47:09.812Z,945.8
2017-08-12T09:48:17.846Z,945.8
2017-08-12T09:49:25.933Z,945.8
2017-08-12T09:50:34.020Z,945.8
2017-08-12T09:51:42.114Z,945.8
2017-08-12T09:52:50.314Z,945.8
2017-08-12T09:53:58.302Z,945.8
2017-08-12T09:55:06.369Z,945.8
2017-08-12T09:56:14.454Z,945.9
2017-08-12T09:57:22.674Z,945.8
2017-08-12T09:58:30.804Z,945.9
2017-08-12T09:59:38.716Z,945.9
2017-08-12T10:00:46.813Z,945.9
2017-08-12T10:01:54.961Z,945.9
2017-08-12T10:03:02.989Z,945.9
2017-08-12T10:04:11.120Z,945.9
2017-08-12T10:05:19.150Z,946.0
2017-08-12T10:06:27.240Z,946.0
2017-08-12T10:07:35.327Z,946.0
2017-08-12T10:08:43.412Z,945.9
2017-08-12T10:09:51.622Z,945.9
2017-08-12T10:10:59.588Z,945.9
2017-08-12T10:12:07.854Z,945.9
2017-08-12T10:13:15.760Z,945.9
2017-08-12T10:14:23.905Z,945.9
2017-08-12T10:15:32.056Z,945.9
2017-08-12T10:16:40.030Z,945.9
2017-08-12T10:17:48.114Z,946.0
2017-08-12T10:18:56.203Z,946.0
2017-08-12T10:20:04.288Z,946.0
2017-08-12T10:21:12.432Z,946.0
2017-08-12T10:22:20.558Z,946.0
2017-08-12T10:23:28.598Z,946.0
2017-08-12T10:24:36.640Z,946.0
2017-08-12T10:25:44.722Z,946.0
2017-08-12T10:26:52.932Z,946.0
2017-08-12T10:28:00.899Z,946.0
2017-08-12T10:29:08.987Z,946.0
2017-08-12T10:30:17.137Z,946.0
2017-08-12T10:31:25.167Z,946.0
2017-08-12T10:32:33.373Z,946.1
2017-08-12T10:33:41.341Z,946.1
2017-08-12T10:34:49.429Z,946.1
2017-08-12T10:35:57.564Z,946.1
2017-08-12T10:37:05.605Z,946.1
2017-08-12T10:38:13.813Z,946.1
2017-08-12T10:39:21.783Z,946.1
2017-08-12T10:40:29.864Z,946.1
2017-08-12T10:41:37.954Z,946.2
2017-08-12T10:42:46.040Z,946.1
2017-08-12T10:43:54.182Z,946.1
2017-08-12T10:45:02.213Z,946.2
2017-08-12T10:46:10.480Z,946.2
2017-08-12T10:47:18.393Z,946.2
2017-08-12T10:48:26.474Z,946.2
2017-08-12T10:49:34.617Z,946.2
2017-08-12T10:50:42.649Z,946.2
2017-08-12T10:51:50.877Z,946.2
2017-08-12T10:52:58.830Z,946.2
2017-08-12T10:54:06.929Z,946.2
2017-08-12T10:55:15.144Z,946.2
2017-08-12T10:56:23.103Z,946.2
2017-08-12T10:57:31.190Z,946.2
2017-08-12T10:58:39.275Z,946.2
2017-08-12T10:59:47.544Z,946.2
2017-08-12T11:00:55.509Z,946.2
2017-08-12T11:02:03.662Z,946.2
2017-08-12T11:03:11.633Z,946.2
2017-08-12T11:04:20.122Z,946.1
2017-08-12T11:05:27.801Z,946.1
2017-08-12T11:06:35.940Z,946.1
2017-08-12T11:07:43.974Z,946.1
2017-08-12T11:08:52.068Z,946.1
2017-08-12T11:10:00.163Z,946.1
2017-08-12T11:11:08.250Z,946.1
2017-08-12T11:12:16.459Z,946.1
2017-08-12T11:13:24.521Z,946.1
2017-08-12T11:14:32.536Z,946.1
2017-08-12T11:15:40.600Z,946.2
2017-08-12T11:16:48.686Z,946.1
2017-08-12T11:17:56.932Z,946.2
2017-08-12T11:19:04.864Z,946.2
2017-08-12T11:20:12.950Z,946.2
2017-08-12T11:21:21.035Z,946.2
2017-08-12T11:22:29.123Z,946.2
2017-08-12T11:23:37.496Z,946.2
2017-08-12T11:24:45.297Z,946.2
2017-08-12T11:25:53.385Z,946.2
2017-08-12T11:27:01.471Z,946.2
2017-08-12T11:28:09.652Z,946.2
2017-08-12T11:29:17.715Z,946.1
2017-08-12T11:30:25.742Z,946.2
2017-08-12T11:31:34.220Z,946.2
2017-08-12T11:32:41.946Z,946.2
2017-08-12T11:33:50.143Z,946.2
2017-08-12T11:34:58.165Z,946.2
2017-08-12T11:36:06.358Z,946.2
2017-08-12T11:37:14.278Z,946.2
2017-08-12T11:38:22.367Z,946.2
2017-08-12T11:39:30.455Z,946.2
2017-08-12T11:40:38.604Z,946.2
2017-08-12T11:41:46.628Z,946.2
2017-08-12T11:42:54.730Z,946.2
2017-08-12T11:44:02.801Z,946.2
2017-08-12T11:45:10.953Z,946.2
2017-08-12T11:46:18.976Z,946.2
2017-08-12T11:47:27.061Z,946.1
2017-08-12T11:48:35.166Z,946.1
2017-08-12T11:49:43.381Z,946.2
2017-08-12T11:50:57.081Z,946.2
2017-08-12T11:51:59.454Z,946.1
2017-08-12T11:53:07.544Z,946.2
2017-08-12T11:54:15.601Z,946.2
2017-08-12T11:55:23.771Z,946.2
2017-08-12T11:56:31.847Z,946.1
2017-08-12T11:57:39.860Z,946.2
2017-08-12T11:58:47.946Z,946.2
2017-08-12T11:59:56.036Z,946.1
2017-08-12T12:01:04.281Z,946.2
2017-08-12T12:02:12.330Z,946.2
2017-08-12T12:03:20.609Z,946.2
2017-08-12T12:04:28.385Z,946.2
2017-08-12T12:05:36.723Z,946.2
2017-08-12T12:06:44.558Z,946.2
2017-08-12T12:07:52.765Z,946.2
2017-08-12T12:09:00.811Z,946.2
2017-08-12T12:10:08.821Z,946.2
2017-08-12T12:11:16.902Z,946.2
2017-08-12T12:12:24.997Z,946.2
2017-08-12T12:13:33.136Z,946.2
2017-08-12T12:14:41.241Z,946.2
2017-08-12T12:15:49.357Z,946.2
2017-08-12T12:16:57.343Z,946.1
2017-08-12T12:18:05.432Z,946.2
2017-08-12T12:19:13.572Z,946.2
2017-08-12T12:20:21.645Z,946.1
2017-08-12T12:21:29.813Z,946.2
2017-08-12T12:22:37.779Z,946.2
2017-08-12T12:23:45.867Z,946.1
2017-08-12T12:24:54.303Z,946.2
2017-08-12T12:26:02.139Z,946.2
2017-08-12T12:27:10.237Z,946.1
2017-08-12T12:28:18.340Z,946.1
2017-08-12T12:29:26.426Z,946.1
2017-08-12T12:30:34.761Z,946.1
2017-08-12T12:31:42.599Z,946.0
2017-08-12T12:32:50.589Z,946.0
2017-08-12T12:33:58.676Z,946.0
2017-08-12T12:35:06.766Z,946.0
2017-08-12T12:36:14.972Z,946.0
2017-08-12T12:37:23.058Z,946.0
2017-08-12T12:38:31.044Z,946.1
2017-08-12T12:39:39.464Z,946.0
2017-08-12T12:40:47.199Z,946.1
2017-08-12T12:41:55.343Z,946.1
2017-08-12T12:43:03.419Z,946.1
2017-08-12T12:44:11.463Z,946.1
2017-08-12T12:45:19.549Z,946.1
2017-08-12T12:46:27.642Z,946.1
2017-08-12T12:47:35.844Z,946.1
2017-08-12T12:48:43.807Z,946.1
2017-08-12T12:49:51.903Z,946.1
2017-08-12T12:50:59.991Z,946.0
2017-08-12T12:52:08.105Z,946.1
2017-08-12T12:53:16.235Z,946.1
2017-08-12T12:54:24.245Z,946.1
2017-08-12T12:55:32.334Z,946.1
2017-08-12T12:56:40.419Z,946.1
2017-08-12T12:57:48.659Z,946.2
2017-08-12T12:58:56.715Z,946.1
2017-08-12T13:00:04.682Z,946.1
2017-08-12T13:01:12.768Z,946.2
2017-08-12T13:02:20.857Z,946.2
2017-08-12T13:03:28.943Z,946.2
2017-08-12T13:04:37.084Z,946.2
2017-08-12T13:05:45.118Z,946.1
2017-08-12T13:06:53.268Z,946.2
2017-08-12T13:08:01.417Z,946.2
2017-08-12T13:09:09.503Z,946.2
2017-08-12T13:10:17.526Z,946.2
2017-08-12T13:11:25.656Z,946.1
2017-08-12T13:12:33.646Z,946.1
2017-08-12T13:13:41.735Z,946.1
2017-08-12T13:14:49.822Z,946.1
2017-08-12T13:15:58.591Z,946.1
2017-08-12T13:17:06.003Z,946.1
2017-08-12T13:18:14.084Z,946.1
2017-08-12T13:19:22.169Z,946.1
2017-08-12T13:20:30.425Z,946.1
2017-08-12T13:21:38.555Z,946.1
2017-08-12T13:22:46.430Z,946.1
2017-08-12T13:23:54.520Z,946.1
2017-08-12T13:25:02.659Z,946.2
2017-08-12T13:26:10.822Z,946.2
2017-08-12T13:27:18.896Z,946.2
2017-08-12T13:28:26.867Z,946.1
2017-08-12T13:29:34.956Z,946.2
2017-08-12T13:30:43.514Z,946.2
2017-08-12T13:31:51.140Z,946.2
2017-08-12T13:32:59.284Z,946.2
2017-08-12T13:34:07.312Z,946.1
2017-08-12T13:35:15.581Z,946.2
2017-08-12T13:36:23.494Z,946.2
2017-08-12T13:37:31.577Z,946.1
2017-08-12T13:38:39.786Z,946.1
2017-08-12T13:39:47.750Z,946.1
2017-08-12T13:40:55.896Z,946.1
2017-08-12T13:42:03.923Z,946.1
2017-08-12T13:43:12.015Z,946.0
2017-08-12T13:44:20.219Z,946.1
2017-08-12T13:45:28.304Z,946.1
2017-08-12T13:46:36.273Z,946.0
2017-08-12T13:47:44.362Z,946.1
2017-08-12T13:48:52.447Z,946.0
2017-08-12T13:50:00.592Z,946.0
2017-08-12T13:51:08.624Z,946.1
2017-08-12T13:52:16.709Z,946.0
2017-08-12T13:53:24.905Z,946.0
2017-08-12T13:54:32.883Z,946.0
2017-08-12T13:55:41.091Z,946.0
2017-08-12T13:56:49.115Z,946.0
2017-08-12T13:57:57.148Z,946.0
2017-08-12T13:59:05.236Z,946.0
2017-08-12T14:00:13.320Z,946.0
2017-08-12T14:01:21.469Z,946.0
2017-08-12T14:02:29.507Z,946.1
2017-08-12T14:03:37.598Z,946.0
2017-08-12T14:04:45.677Z,946.0
2017-08-12T14:05:53.764Z,946.0
2017-08-12T14:07:01.969Z,946.0
2017-08-12T14:08:09.939Z,946.0
2017-08-12T14:09:18.024Z,946.0
2017-08-12T14:10:26.117Z,946.0
2017-08-12T14:11:34.213Z,945.9
2017-08-12T14:12:42.363Z,945.9
2017-08-12T14:13:50.426Z,946.0
2017-08-12T14:14:58.475Z,946.0
2017-08-12T14:16:06.565Z,945.9
2017-08-12T14:17:14.659Z,946.0
2017-08-12T14:18:22.984Z,946.0
2017-08-12T14:19:30.824Z,946.1
2017-08-12T14:20:38.910Z,946.0
2017-08-12T14:21:46.996Z,946.0
2017-08-12T14:22:55.260Z,946.0
2017-08-12T14:24:03.236Z,946.0
2017-08-12T14:25:11.261Z,946.0
2017-08-12T14:26:19.348Z,945.9
2017-08-12T14:27:27.548Z,945.9
2017-08-12T14:28:35.643Z,946.0
2017-08-12T14:29:43.667Z,945.9
2017-08-12T14:30:51.695Z,945.9
2017-08-12T14:31:59.784Z,945.9
2017-08-12T14:33:07.870Z,945.9
2017-08-12T14:34:15.958Z,946.0
2017-08-12T14:35:24.104Z,945.9
2017-08-12T14:36:32.291Z,945.9